Latest Weather Observations for Rowley Shoals

IDW60801

Issued at 6:03 pm WST Sunday 1 February 2015 (issued every 30 minutes, with the page automatically refreshed every 10 minutes)

About weather observations | Map of weather stations | Latest weather observations for WA | Other Formats
Station Details ID: 200713 Name: ROWLEY SHOALS Lat: -17.52 Lon: 118.95 Height: 0.0 m
Data from the previous 72 hours. | See also: Recent months for locations in Western Australia
Date/Time
WST
Temp
°C
App
Temp
°C
Dew
Point
Rel
Hum
%
Delta-T
°C
Wind Press
QNH
hPa
Press
MSL
hPa
Rain
since 9 am
mm
Dir
 
Spd
km/h
Gust
km/h
Spd
kts
Gust
kts
01/06:00pm - - - - - SW 17 20 9 11 1008.4 1008.4 -
01/05:30pm - - - - - SW 17 19 9 10 1008.5 1008.5 -
01/05:00pm - - - - - SW 17 20 9 11 1008.4 1008.4 -
01/04:30pm - - - - - SW 15 20 8 11 1008.6 1008.6 -
01/04:00pm - - - - - SSW 15 20 8 11 1008.6 1008.5 -
01/03:30pm - - - - - SSW 13 17 7 9 1008.9 1008.9 -
01/03:00pm - - - - - SW 15 20 8 11 1009.2 1009.0 -
01/02:30pm - - - - - SW 15 20 8 11 1009.3 1009.3 -
01/02:00pm - - - - - WSW 17 20 9 11 1009.5 1009.3 -
01/01:30pm - - - - - SW 17 20 9 11 1009.6 1009.6 -
01/01:00pm - - - - - WSW 15 20 8 11 1009.8 1009.6 -
01/12:30pm - - - - - WSW 15 20 8 11 1010.1 1010.1 -
01/12:00pm - - - - - WSW 13 15 7 8 1010.3 1010.2 -
01/11:30am - - - - - WSW 13 15 7 8 1010.5 1010.5 -
01/11:00am - - - - - WSW 11 15 6 8 1010.8 1010.6 -
01/10:30am - - - - - WSW 13 15 7 8 1010.9 1010.9 -
01/10:00am - - - - - WSW 17 20 9 11 1011.0 1010.9 -
01/09:30am - - - - - W 19 20 10 11 1010.9 1010.9 -
01/09:00am - - - - - W 15 20 8 11 1010.8 1010.8 -
01/08:30am - - - - - WNW 15 19 8 10 1010.8 1010.8 -
01/08:00am - - - - - W 20 22 11 12 1010.5 1010.5 -
01/07:30am - - - - - WNW 19 22 10 12 1010.3 1010.3 -
01/07:00am - - - - - WNW 22 26 12 14 1010.2 1010.0 -
01/06:30am - - - - - WNW 24 30 13 16 1009.9 1009.9 -
01/06:00am - - - - - WNW 20 24 11 13 1009.7 1009.7 -
01/05:30am - - - - - NW 19 20 10 11 1009.5 1009.5 -
01/05:00am - - - - - WNW 19 20 10 11 1009.2 1009.2 -
01/04:30am - - - - - NW 17 20 9 11 1009.1 1009.1 -
01/04:00am - - - - - NW 19 22 10 12 1009.2 1009.1 -
01/03:30am - - - - - NW 15 20 8 11 1009.0 1009.0 -
01/03:00am - - - - - NW 15 19 8 10 1008.8 1008.8 -
01/02:30am - - - - - NW 17 19 9 10 1008.9 1008.9 -
01/02:00am - - - - - NW 17 20 9 11 1008.8 1008.8 -
01/01:30am - - - - - NNW 15 20 8 11 1008.9 1008.9 -
01/01:00am - - - - - NNW 13 15 7 8 1009.2 1008.9 -
01/12:30am - - - - - NNW 11 15 6 8 1009.3 1009.3 -
01/12:00am - - - - - NNW 11 15 6 8 1009.4 1009.4 -
 
Date/Time
WST
Temp
°C
App
Temp
°C
Dew
Point
Rel
Hum
%
Delta-T
°C
Wind Press
QNH
hPa
Press
MSL
hPa
Rain
since 9 am
mm
Dir
 
Spd
km/h
Gust
km/h
Spd
kts
Gust
kts
31/11:30pm - - - - - NNW 13 15 7 8 1009.5 1009.5 -
31/11:00pm - - - - - NNW 13 17 7 9 1009.5 1009.4 -
31/10:30pm - - - - - NNW 13 17 7 9 1009.4 1009.4 -
31/10:00pm - - - - - NW 13 17 7 9 1009.3 1009.2 -
31/09:30pm - - - - - NW 13 15 7 8 1008.8 1008.8 -
31/09:00pm - - - - - NNW 11 15 6 8 1008.6 1008.5 -
31/08:30pm - - - - - NW 13 15 7 8 1008.5 1008.5 -
31/08:00pm - - - - - NW 13 17 7 9 1008.3 1008.2 -
31/07:30pm - - - - - WNW 13 17 7 9 1007.8 1007.8 -
31/07:00pm - - - - - WNW 15 17 8 9 1007.6 1007.5 -
31/06:30pm - - - - - NW 17 20 9 11 1007.4 1007.4 -
31/06:03pm -47.2 - - - - WNW 15 17 8 9 1007.5 1007.5 -
31/06:00pm -41.2 - - - - WNW 13 17 7 9 1007.5 1007.5 -
31/05:30pm - - - - - NW 9 11 5 6 1007.2 1007.2 -
31/05:00pm - - - - - NNW 7 11 4 6 1007.0 1006.9 -
31/04:30pm - - - - - WNW 6 7 3 4 1006.6 1006.6 -
31/04:00pm - - - - - WNW 7 11 4 6 1006.8 1006.7 -
31/03:30pm - - - - - NW 9 13 5 7 1007.0 1007.0 -
31/03:00pm - - - - - WNW 11 15 6 8 1007.2 1007.1 -
31/02:30pm - - - - - WNW 13 15 7 8 1007.4 1007.4 -
31/02:00pm - - - - - WNW 13 17 7 9 1007.7 1007.5 -
31/01:30pm - - - - - WNW 11 13 6 7 1007.9 1007.9 -
31/01:00pm - - - - - WSW 11 15 6 8 1008.0 1007.9 -
31/12:30pm - - - - - WSW 13 17 7 9 1008.2 1008.2 -
31/12:00pm - - - - - WSW 13 17 7 9 1008.8 1008.4 -
31/11:30am - - - - - WSW 17 19 9 10 1009.0 1009.0 -
31/11:00am - - - - - SW 13 19 7 10 1009.4 1009.2 -
31/10:30am - - - - - WSW 11 15 6 8 1009.6 1009.6 -
31/10:00am - - - - - WSW 11 15 6 8 1009.7 1009.6 -
31/09:30am - - - - - WSW 13 15 7 8 1009.6 1009.6 -
31/09:00am - - - - - WSW 15 17 8 9 1009.4 1009.4 -
31/08:30am - - - - - WSW 15 19 8 10 1009.2 1009.2 -
31/08:00am - - - - - W 17 20 9 11 1008.9 1008.9 -
31/07:30am - - - - - W 19 24 10 13 1008.7 1008.7 -
31/07:00am - - - - - W 19 24 10 13 1008.4 1008.2 -
31/06:30am - - - - - WSW 22 26 12 14 1008.1 1008.1 -
31/06:00am - - - - - W 20 26 11 14 1008.0 1007.9 -
31/05:30am - - - - - W 22 28 12 15 1007.8 1007.8 -
31/05:00am - - - - - W 22 26 12 14 1007.7 1007.6 -
31/04:30am - - - - - W 26 32 14 17 1007.5 1007.5 -
31/04:00am - - - - - W 24 32 13 17 1007.5 1007.4 -
31/03:30am - - - - - W 24 28 13 15 1007.6 1007.6 -
31/03:00am - - - - - W 26 30 14 16 1007.4 1007.4 -
31/02:30am - - - - - W 26 32 14 17 1007.5 1007.5 -
31/02:00am - - - - - WNW 28 32 15 17 1007.7 1007.5 -
31/01:30am - - - - - W 26 32 14 17 1007.7 1007.7 -
31/01:00am - - - - - WNW 26 30 14 16 1007.8 1007.7 -
31/12:30am - - - - - WNW 28 32 15 17 1007.6 1007.6 -
31/12:00am - - - - - WNW 26 30 14 16 1007.5 1007.4 -
 
Date/Time
WST
Temp
°C
App
Temp
°C
Dew
Point
Rel
Hum
%
Delta-T
°C
Wind Press
QNH
hPa
Press
MSL
hPa
Rain
since 9 am
mm
Dir
 
Spd
km/h
Gust
km/h
Spd
kts
Gust
kts
30/11:30pm - - - - - WNW 24 30 13 16 1007.7 1007.7 -
30/11:00pm - - - - - WNW 24 30 13 16 1007.8 1007.7 -
30/10:30pm - - - - - WNW 26 30 14 16 1007.8 1007.8 -
30/10:00pm - - - - - WNW 22 26 12 14 1007.9 1007.8 -
30/09:30pm - - - - - WNW 24 28 13 15 1007.5 1007.5 -
30/09:00pm - - - - - WNW 24 30 13 16 1007.3 1007.4 -
30/08:30pm - - - - - WNW 26 30 14 16 1007.0 1007.0 -
30/08:00pm - - - - - WNW 26 30 14 16 1006.8 1006.8 -
30/07:30pm 28.7 - - - - WNW 24 28 13 15 1006.5 1006.5 -
30/07:00pm - - - - - WNW 19 20 10 11 1006.5 1006.4 -
30/06:30pm - - - - - WNW 17 20 9 11 1006.2 1006.2 -
30/06:12pm -49.6 - - - - WNW 17 20 9 11 1006.2 1006.2 -
30/06:11pm -41.8 - - - - WNW 17 20 9 11 1006.2 1006.2 -
30/06:10pm -32.5 - - - - WNW 17 20 9 11 1006.2 1006.2 -
30/06:07pm -27.1 - - - - WNW 17 20 9 11 1006.2 1006.2 -
30/06:05pm -33.1 - - - - WNW 15 20 8 11 1006.2 1006.2 -
30/06:00pm -28.7 - - - - WNW 15 20 8 11 1006.2 1006.1 -
30/05:56pm -29.6 - - - - WNW 15 19 8 10 1006.2 1006.2 -
30/05:44pm -35.0 - - - - WNW 15 19 8 10 1006.1 1006.1 -
30/05:38pm -27.7 - - - - WNW 15 19 8 10 1006.1 1006.1 -
30/05:33pm -34.5 - - - - WNW 15 19 8 10 1006.1 1006.1 -
30/05:31pm -41.2 - - - - WNW 15 19 8 10 1006.1 1006.1 -
30/05:30pm -48.3 - - - - WNW 15 19 8 10 1006.1 1006.1 -
30/05:00pm - - - - - WNW 15 17 8 9 1006.0 1006.0 -
30/04:30pm - - - - - WNW 11 15 6 8 1006.1 1006.1 -
30/04:00pm - - - - - WNW 11 17 6 9 1006.2 1006.1 -
30/03:30pm - - - - - W 13 17 7 9 1006.3 1006.3 -
30/03:00pm - - - - - W 17 20 9 11 1006.4 1006.4 -
30/02:30pm - - - - - W 15 19 8 10 1006.8 1006.8 -
30/02:00pm - - - - - W 15 19 8 10 1007.1 1007.0 -
30/01:30pm - - - - - WSW 13 19 7 10 1007.6 1007.6 -
30/01:00pm - - - - - W 13 17 7 9 1007.9 1007.7 -
30/12:30pm - - - - - WSW 13 19 7 10 1008.3 1008.3 -
30/12:00pm - - - - - WSW 15 19 8 10 1008.3 1008.1 -
30/11:30am - - - - - WSW 13 17 7 9 1008.5 1008.5 -
30/11:00am - - - - - WSW 13 17 7 9 1008.7 1008.4 -
30/10:30am - - - - - WSW 15 19 8 10 1008.8 1008.8 -
30/10:00am - - - - - W 15 19 8 10 1008.7 1008.5 -
30/09:30am - - - - - W 19 20 10 11 1008.5 1008.5 -
30/09:00am - - - - - W 19 22 10 12 1008.4 1008.2 -
30/08:30am - - - - - WSW 17 22 9 12 1008.4 1008.4 -
30/08:00am - - - - - SW 17 20 9 11 1008.3 1008.2 -
30/07:30am - - - - - WSW 20 24 11 13 1007.9 1007.9 -
30/07:00am - - - - - WSW 20 26 11 14 1007.6 1007.6 -
30/06:30am - - - - - WSW 20 26 11 14 1007.3 1007.3 -
30/06:00am - - - - - W 22 26 12 14 1007.1 1007.2 -
30/05:30am - - - - - WSW 20 22 11 12 1007.0 1007.0 -
30/05:00am - - - - - WSW 17 20 9 11 1006.5 1006.3 -
30/04:30am - - - - - WSW 20 26 11 14 1006.7 1006.7 -
30/04:00am - - - - - W 22 28 12 15 1006.2 1005.9 -
30/03:30am - - - - - W 24 28 13 15 1006.4 1006.4 -
30/03:00am - - - - - W 24 28 13 15 1006.6 1006.4 -
30/02:30am - - - - - W 24 28 13 15 1006.5 1006.5 -
30/02:00am - - - - - W 20 24 11 13 1006.8 1006.7 -
30/01:30am - - - - - WNW 22 26 12 14 1006.9 1006.9 -
30/01:00am - - - - - WNW 22 26 12 14 1007.0 1006.7 -
30/12:30am - - - - - WNW 17 22 9 12 1007.4 1007.4 -
30/12:00am - - - - - WNW 15 20 8 11 1007.7 1007.6 -
 
Date/Time
WST
Temp
°C
App
Temp
°C
Dew
Point
Rel
Hum
%
Delta-T
°C
Wind Press
QNH
hPa
Press
MSL
hPa
Rain
since 9 am
mm
Dir
 
Spd
km/h
Gust
km/h
Spd
kts
Gust
kts
29/11:30pm - - - - - WNW 9 15 5 8 1008.1 1008.1 -
29/11:00pm - - - - - W 11 15 6 8 1008.3 1008.2 -
29/10:30pm - - - - - W 11 15 6 8 1008.3 1008.3 -
29/10:00pm - - - - - W 11 15 6 8 1007.9 1007.9 -
29/09:30pm - - - - - WNW 11 17 6 9 1007.3 1007.3 -
29/09:00pm - - - - - W 13 17 7 9 1006.7 1006.7 -
29/08:30pm - - - - - WNW 13 17 7 9 1006.4 1006.4 -
29/08:19pm 28.6 - - - - W 15 20 8 11 1006.3 1006.3 -
29/08:16pm 3.0 - - - - W 15 20 8 11 1006.2 1006.2 -
29/08:12pm 28.5 - - - - W 15 19 8 10 1006.1 1006.1 -
29/08:11pm -42.6 - - - - W 15 19 8 10 1006.1 1006.1 -
29/08:00pm 28.6 - - - - W 11 15 6 8 1006.1 1006.0 -
29/07:57pm 28.4 - - - - W 13 17 7 9 1006.1 1006.1 -
29/07:56pm 12.5 - - - - W 13 17 7 9 1006.1 1006.1 -
29/07:54pm 28.5 - - - - W 13 17 7 9 1006.1 1006.1 -
29/07:52pm -47.9 - - - - W 13 17 7 9 1006.1 1006.1 -
29/07:51pm -33.9 - - - - W 13 17 7 9 1006.1 1006.1 -
29/07:50pm -23.6 - - - - W 13 17 7 9 1006.0 1006.0 -
29/07:49pm -9.9 - - - - WNW 13 17 7 9 1006.0 1006.0 -
29/07:48pm -25.0 - - - - WNW 13 17 7 9 1006.0 1006.0 -
29/07:46pm -15.7 - - - - WNW 13 17 7 9 1005.9 1005.9 -
29/07:41pm -9.2 - - - - WNW 13 17 7 9 1005.9 1005.9 -
29/07:40pm -3.1 - - - - W 13 17 7 9 1005.9 1005.9 -
29/07:39pm 8.1 - - - - W 13 17 7 9 1005.9 1005.9 -
29/07:38pm -5.0 - - - - W 13 17 7 9 1005.9 1005.9 -
29/07:36pm -17.1 - - - - W 13 17 7 9 1005.9 1005.9 -
29/07:35pm -25.7 - - - - W 11 17 6 9 1005.9 1005.9 -
29/07:34pm -18.7 - - - - W 11 17 6 9 1005.9 1005.9 -
29/07:33pm -29.3 - - - - W 11 17 6 9 1005.9 1005.9 -
29/07:32pm -21.5 - - - - W 11 15 6 8 1005.9 1005.9 -
29/07:31pm -16.5 - - - - W 11 15 6 8 1005.9 1005.9 -
29/07:30pm -30.4 - - - - W 11 15 6 8 1005.8 1005.8 -
29/07:06pm -23.5 - - - - W 13 17 7 9 1005.5 1005.5 -
29/07:05pm -32.0 - - - - W 13 17 7 9 1005.5 1005.5 -
29/07:03pm -9.8 - - - - W 15 17 8 9 1005.5 1005.5 -
29/07:02pm 6.3 - - - - W 15 17 8 9 1005.4 1005.4 -
29/07:00pm 28.4 - - - - W 15 19 8 10 1005.4 1005.4 -
29/06:58pm 28.4 - - - - W 17 22 9 12 1005.4 1005.4 -
29/06:57pm -41.7 - - - - W 17 24 9 13 1005.4 1005.4 -
29/06:56pm -16.8 - - - - W 17 24 9 13 1005.3 1005.3 -
29/06:55pm 0.9 - - - - W 17 24 9 13 1005.3 1005.3 -
29/06:53pm -13.5 - - - - W 17 24 9 13 1005.3 1005.3 -
29/06:51pm 8.6 - - - - W 15 24 8 13 1005.3 1005.3 -
29/06:50pm -43.4 - - - - W 15 24 8 13 1005.2 1005.2 -
29/06:49pm -35.8 - - - - W 15 24 8 13 1005.2 1005.2 -
29/06:48pm 16.9 - - - - W 15 24 8 13 1005.2 1005.2 -
29/06:46pm 1.6 - - - - W 13 17 7 9 1005.1 1005.1 -
29/06:45pm 16.6 - - - - W 13 17 7 9 1005.1 1005.1 -
29/06:43pm 26.6 - - - - W 13 17 7 9 1005.1 1005.1 -
29/06:42pm 21.4 - - - - W 15 19 8 10 1005.1 1005.1 -
29/06:33pm 28.2 - - - - W 15 20 8 11 1005.1 1005.1 -
29/06:32pm 13.1 - - - - W 15 20 8 11 1005.1 1005.1 -
29/06:30pm 25.2 - - - - WSW 17 20 9 11 1005.0 1005.0 -

Other Formats:

Comma delimited format used in spreadsheet applications
http://www.bom.gov.au/fwo/IDW60801/IDW60801.94207.axf

JavaScript Object Notation format (JSON) in row-major order
http://www.bom.gov.au/fwo/IDW60801/IDW60801.94207.json